Snowflake, Virginia
Current Conditions -  °F | °C
As of 5:53 PM on Thursday 27 Nov 2014 (Local Time) from KTRI Reporting Station
Light Snow Light Snow  
Wind Chill: 25°   Ceiling: 2300
Heat Index: 33°   Visibility: 9mi
Dew Point: 27°   Wind: 10mph
Humidity: 78%   Direction: 290°WNW
Pressure: 30.28"   Gusts: NA
Location:  36.6668°N, 82.6167°W
Report Text: KTRI 272253Z 29009KT 9SM -SN BKN023 BKN029 OVC039 01/M03 A3028 RMK AO2 SLP255 P0000 T00061028
Loading
Personal Weather Stations






























Interactive Weather Map New forecast layout! Learn more

10-Day Weather Forecast

Advertisements
Track Severe Weather on mobile